sensor_id;sensor_type;location;lat;lon;timestamp;pressure;altitude;pressure_sealevel;temperature
37536;BMP180;23379;51.554;6.736;2023-03-14T00:00:07;98573.00;;;11.40
37536;BMP180;23379;51.554;6.736;2023-03-14T00:02:33;98578.00;;;11.40
37536;BMP180;23379;51.554;6.736;2023-03-14T00:04:58;98566.00;;;11.50
37536;BMP180;23379;51.554;6.736;2023-03-14T00:07:24;98567.00;;;11.60
37536;BMP180;23379;51.554;6.736;2023-03-14T00:09:53;98560.00;;;11.50
37536;BMP180;23379;51.554;6.736;2023-03-14T00:12:18;98535.00;;;11.60
37536;BMP180;23379;51.554;6.736;2023-03-14T00:14:44;98525.00;;;11.80
37536;BMP180;23379;51.554;6.736;2023-03-14T00:17:09;98514.00;;;11.70
37536;BMP180;23379;51.554;6.736;2023-03-14T00:19:34;98515.00;;;11.70
37536;BMP180;23379;51.554;6.736;2023-03-14T00:22:00;98497.00;;;11.80
37536;BMP180;23379;51.554;6.736;2023-03-14T00:24:25;98498.00;;;11.90
37536;BMP180;23379;51.554;6.736;2023-03-14T00:26:50;98492.00;;;11.90
37536;BMP180;23379;51.554;6.736;2023-03-14T00:29:16;98500.00;;;11.90
37536;BMP180;23379;51.554;6.736;2023-03-14T00:31:41;98486.00;;;11.80
37536;BMP180;23379;51.554;6.736;2023-03-14T00:34:06;98509.00;;;11.60
37536;BMP180;23379;51.554;6.736;2023-03-14T00:36:32;98506.00;;;11.60
37536;BMP180;23379;51.554;6.736;2023-03-14T00:38:57;98544.00;;;11.50
37536;BMP180;23379;51.554;6.736;2023-03-14T00:41:23;98539.00;;;11.10
37536;BMP180;23379;51.554;6.736;2023-03-14T00:43:49;98542.00;;;10.90
37536;BMP180;23379;51.554;6.736;2023-03-14T00:46:15;98538.00;;;10.80
37536;BMP180;23379;51.554;6.736;2023-03-14T00:48:40;98541.00;;;10.80
37536;BMP180;23379;51.554;6.736;2023-03-14T00:51:07;98518.00;;;10.70
37536;BMP180;23379;51.554;6.736;2023-03-14T00:53:37;98545.00;;;10.70
37536;BMP180;23379;51.554;6.736;2023-03-14T00:56:04;98558.00;;;10.70
37536;BMP180;23379;51.554;6.736;2023-03-14T00:58:30;98542.00;;;10.70
37536;BMP180;23379;51.554;6.736;2023-03-14T01:00:55;98541.00;;;10.80
37536;BMP180;23379;51.554;6.736;2023-03-14T01:03:21;98540.00;;;10.60
37536;BMP180;23379;51.554;6.736;2023-03-14T01:05:46;98545.00;;;10.50
37536;BMP180;23379;51.554;6.736;2023-03-14T01:08:11;98538.00;;;10.40
37536;BMP180;23379;51.554;6.736;2023-03-14T01:10:40;98554.00;;;10.40
37536;BMP180;23379;51.554;6.736;2023-03-14T01:13:07;98546.00;;;10.40
37536;BMP180;23379;51.554;6.736;2023-03-14T01:15:33;98554.00;;;10.40
37536;BMP180;23379;51.554;6.736;2023-03-14T01:17:59;98538.00;;;10.40
37536;BMP180;23379;51.554;6.736;2023-03-14T01:20:25;98563.00;;;10.50
37536;BMP180;23379;51.554;6.736;2023-03-14T01:22:50;98551.00;;;10.50
37536;BMP180;23379;51.554;6.736;2023-03-14T01:25:16;98556.00;;;10.40
37536;BMP180;23379;51.554;6.736;2023-03-14T01:27:42;98551.00;;;10.50
37536;BMP180;23379;51.554;6.736;2023-03-14T01:30:09;98542.00;;;10.50
37536;BMP180;23379;51.554;6.736;2023-03-14T01:32:35;98547.00;;;10.40
37536;BMP180;23379;51.554;6.736;2023-03-14T01:35:00;98538.00;;;10.50
37536;BMP180;23379;51.554;6.736;2023-03-14T01:37:25;98540.00;;;10.50
37536;BMP180;23379;51.554;6.736;2023-03-14T01:39:51;98512.00;;;10.50
37536;BMP180;23379;51.554;6.736;2023-03-14T01:42:16;98521.00;;;10.50
37536;BMP180;23379;51.554;6.736;2023-03-14T01:44:59;98536.00;;;10.40
37536;BMP180;23379;51.554;6.736;2023-03-14T01:47:25;98526.00;;;10.30
37536;BMP180;23379;51.554;6.736;2023-03-14T01:50:01;98522.00;;;10.30
37536;BMP180;23379;51.554;6.736;2023-03-14T01:53:01;98528.00;;;10.30
37536;BMP180;23379;51.554;6.736;2023-03-14T01:55:26;98524.00;;;10.20
37536;BMP180;23379;51.554;6.736;2023-03-14T01:57:59;98522.00;;;10.10
37536;BMP180;23379;51.554;6.736;2023-03-14T02:00:25;98543.00;;;10.30
37536;BMP180;23379;51.554;6.736;2023-03-14T02:03:02;98515.00;;;10.20
37536;BMP180;23379;51.554;6.736;2023-03-14T02:05:30;98517.00;;;10.20
37536;BMP180;23379;51.554;6.736;2023-03-14T02:08:01;98543.00;;;10.00
37536;BMP180;23379;51.554;6.736;2023-03-14T02:10:30;98524.00;;;10.00
37536;BMP180;23379;51.554;6.736;2023-03-14T02:12:59;98521.00;;;10.10
37536;BMP180;23379;51.554;6.736;2023-03-14T02:15:26;98502.00;;;10.00
37536;BMP180;23379;51.554;6.736;2023-03-14T02:17:51;98513.00;;;10.10
37536;BMP180;23379;51.554;6.736;2023-03-14T02:22:46;98507.00;;;10.20
37536;BMP180;23379;51.554;6.736;2023-03-14T02:25:14;98521.00;;;10.20
37536;BMP180;23379;51.554;6.736;2023-03-14T02:27:42;98511.00;;;10.20
37536;BMP180;23379;51.554;6.736;2023-03-14T02:30:22;98522.00;;;10.20
37536;BMP180;23379;51.554;6.736;2023-03-14T02:32:51;98514.00;;;10.00
37536;BMP180;23379;51.554;6.736;2023-03-14T02:35:21;98514.00;;;10.00
37536;BMP180;23379;51.554;6.736;2023-03-14T02:37:55;98526.00;;;10.00
37536;BMP180;23379;51.554;6.736;2023-03-14T02:40:21;98517.00;;;10.10
37536;BMP180;23379;51.554;6.736;2023-03-14T02:42:47;98531.00;;;10.00
37536;BMP180;23379;51.554;6.736;2023-03-14T02:47:44;98527.00;;;10.00
37536;BMP180;23379;51.554;6.736;2023-03-14T02:50:17;98530.00;;;10.00
37536;BMP180;23379;51.554;6.736;2023-03-14T02:52:44;98512.00;;;10.20
37536;BMP180;23379;51.554;6.736;2023-03-14T02:55:10;98537.00;;;10.10
37536;BMP180;23379;51.554;6.736;2023-03-14T02:57:35;98509.00;;;10.10
37536;BMP180;23379;51.554;6.736;2023-03-14T03:00:02;98519.00;;;10.00
37536;BMP180;23379;51.554;6.736;2023-03-14T03:02:30;98537.00;;;10.10
37536;BMP180;23379;51.554;6.736;2023-03-14T03:04:55;98506.00;;;10.10
37536;BMP180;23379;51.554;6.736;2023-03-14T03:07:21;98514.00;;;10.00
37536;BMP180;23379;51.554;6.736;2023-03-14T03:09:46;98496.00;;;10.00
37536;BMP180;23379;51.554;6.736;2023-03-14T03:12:11;98495.00;;;10.10
37536;BMP180;23379;51.554;6.736;2023-03-14T03:14:37;98507.00;;;10.10
37536;BMP180;23379;51.554;6.736;2023-03-14T03:17:04;98499.00;;;10.20
37536;BMP180;23379;51.554;6.736;2023-03-14T03:19:30;98508.00;;;10.30
37536;BMP180;23379;51.554;6.736;2023-03-14T03:21:55;98478.00;;;10.20
37536;BMP180;23379;51.554;6.736;2023-03-14T03:24:21;98495.00;;;10.20
37536;BMP180;23379;51.554;6.736;2023-03-14T03:26:46;98491.00;;;10.20
37536;BMP180;23379;51.554;6.736;2023-03-14T03:29:11;98491.00;;;10.20
37536;BMP180;23379;51.554;6.736;2023-03-14T03:31:38;98492.00;;;10.40
37536;BMP180;23379;51.554;6.736;2023-03-14T03:34:04;98477.00;;;10.40
37536;BMP180;23379;51.554;6.736;2023-03-14T03:36:29;98475.00;;;10.20
37536;BMP180;23379;51.554;6.736;2023-03-14T03:38:54;98470.00;;;10.20
37536;BMP180;23379;51.554;6.736;2023-03-14T03:41:20;98463.00;;;10.20
37536;BMP180;23379;51.554;6.736;2023-03-14T03:43:45;98465.00;;;10.20
37536;BMP180;23379;51.554;6.736;2023-03-14T03:46:10;98453.00;;;10.20
37536;BMP180;23379;51.554;6.736;2023-03-14T03:48:36;98455.00;;;10.30
37536;BMP180;23379;51.554;6.736;2023-03-14T03:51:01;98462.00;;;10.30
37536;BMP180;23379;51.554;6.736;2023-03-14T03:53:27;98468.00;;;10.30
37536;BMP180;23379;51.554;6.736;2023-03-14T03:55:52;98467.00;;;10.30
37536;BMP180;23379;51.554;6.736;2023-03-14T03:58:18;98473.00;;;10.30
37536;BMP180;23379;51.554;6.736;2023-03-14T04:00:43;98452.00;;;10.20
37536;BMP180;23379;51.554;6.736;2023-03-14T04:03:09;98464.00;;;10.30
37536;BMP180;23379;51.554;6.736;2023-03-14T04:05:34;98468.00;;;10.20
37536;BMP180;23379;51.554;6.736;2023-03-14T04:08:00;98476.00;;;10.30
37536;BMP180;23379;51.554;6.736;2023-03-14T04:10:26;98471.00;;;10.30
37536;BMP180;23379;51.554;6.736;2023-03-14T04:12:51;98480.00;;;10.40
37536;BMP180;23379;51.554;6.736;2023-03-14T04:15:17;98475.00;;;10.20
37536;BMP180;23379;51.554;6.736;2023-03-14T04:17:42;98483.00;;;10.30
37536;BMP180;23379;51.554;6.736;2023-03-14T04:20:08;98458.00;;;10.20
37536;BMP180;23379;51.554;6.736;2023-03-14T04:22:36;98444.00;;;10.20
37536;BMP180;23379;51.554;6.736;2023-03-14T04:25:01;98453.00;;;10.20
37536;BMP180;23379;51.554;6.736;2023-03-14T04:27:28;98466.00;;;10.00
37536;BMP180;23379;51.554;6.736;2023-03-14T04:29:54;98448.00;;;10.10
37536;BMP180;23379;51.554;6.736;2023-03-14T04:32:19;98440.00;;;10.10
37536;BMP180;23379;51.554;6.736;2023-03-14T04:34:45;98439.00;;;10.20
37536;BMP180;23379;51.554;6.736;2023-03-14T04:37:10;98445.00;;;10.20
37536;BMP180;23379;51.554;6.736;2023-03-14T04:39:35;98431.00;;;9.90
37536;BMP180;23379;51.554;6.736;2023-03-14T04:42:02;98438.00;;;9.80
37536;BMP180;23379;51.554;6.736;2023-03-14T04:44:27;98423.00;;;9.80
37536;BMP180;23379;51.554;6.736;2023-03-14T04:46:53;98420.00;;;9.60
37536;BMP180;23379;51.554;6.736;2023-03-14T04:49:18;98430.00;;;9.40
37536;BMP180;23379;51.554;6.736;2023-03-14T04:51:43;98436.00;;;9.30
37536;BMP180;23379;51.554;6.736;2023-03-14T04:54:09;98445.00;;;9.10
37536;BMP180;23379;51.554;6.736;2023-03-14T04:56:34;98437.00;;;9.20
37536;BMP180;23379;51.554;6.736;2023-03-14T04:58:59;98440.00;;;9.20
37536;BMP180;23379;51.554;6.736;2023-03-14T05:01:25;98428.00;;;9.10
37536;BMP180;23379;51.554;6.736;2023-03-14T05:03:50;98421.00;;;9.30
37536;BMP180;23379;51.554;6.736;2023-03-14T05:06:16;98442.00;;;9.10
37536;BMP180;23379;51.554;6.736;2023-03-14T05:08:41;98439.00;;;9.10
37536;BMP180;23379;51.554;6.736;2023-03-14T05:11:10;98423.00;;;9.00
37536;BMP180;23379;51.554;6.736;2023-03-14T05:13:35;98425.00;;;8.90
37536;BMP180;23379;51.554;6.736;2023-03-14T05:16:09;98409.00;;;8.90
37536;BMP180;23379;51.554;6.736;2023-03-14T05:18:34;98425.00;;;8.90
37536;BMP180;23379;51.554;6.736;2023-03-14T05:21:00;98439.00;;;8.90
37536;BMP180;23379;51.554;6.736;2023-03-14T05:23:25;98427.00;;;8.90
37536;BMP180;23379;51.554;6.736;2023-03-14T05:25:51;98428.00;;;8.90
37536;BMP180;23379;51.554;6.736;2023-03-14T05:28:16;98411.00;;;8.80
37536;BMP180;23379;51.554;6.736;2023-03-14T05:30:41;98410.00;;;8.80
37536;BMP180;23379;51.554;6.736;2023-03-14T05:33:07;98405.00;;;8.80
37536;BMP180;23379;51.554;6.736;2023-03-14T05:35:32;98416.00;;;8.90
37536;BMP180;23379;51.554;6.736;2023-03-14T05:37:57;98402.00;;;8.90
37536;BMP180;23379;51.554;6.736;2023-03-14T05:40:23;98405.00;;;8.70
37536;BMP180;23379;51.554;6.736;2023-03-14T05:42:48;98386.00;;;8.80
37536;BMP180;23379;51.554;6.736;2023-03-14T05:45:13;98405.00;;;8.80
37536;BMP180;23379;51.554;6.736;2023-03-14T05:47:39;98412.00;;;8.90
37536;BMP180;23379;51.554;6.736;2023-03-14T05:50:04;98408.00;;;8.80
37536;BMP180;23379;51.554;6.736;2023-03-14T05:52:30;98394.00;;;8.80
37536;BMP180;23379;51.554;6.736;2023-03-14T05:54:55;98384.00;;;8.80
37536;BMP180;23379;51.554;6.736;2023-03-14T05:57:20;98387.00;;;8.70
37536;BMP180;23379;51.554;6.736;2023-03-14T05:59:45;98377.00;;;8.90
37536;BMP180;23379;51.554;6.736;2023-03-14T06:02:11;98392.00;;;8.90
37536;BMP180;23379;51.554;6.736;2023-03-14T06:04:36;98385.00;;;8.80
37536;BMP180;23379;51.554;6.736;2023-03-14T06:07:02;98385.00;;;8.90
37536;BMP180;23379;51.554;6.736;2023-03-14T06:09:27;98397.00;;;8.90
37536;BMP180;23379;51.554;6.736;2023-03-14T06:11:52;98392.00;;;8.90
37536;BMP180;23379;51.554;6.736;2023-03-14T06:14:18;98394.00;;;8.80
37536;BMP180;23379;51.554;6.736;2023-03-14T06:16:43;98410.00;;;8.80
37536;BMP180;23379;51.554;6.736;2023-03-14T06:19:09;98375.00;;;8.80
37536;BMP180;23379;51.554;6.736;2023-03-14T06:21:35;98397.00;;;8.90
37536;BMP180;23379;51.554;6.736;2023-03-14T06:24:00;98389.00;;;9.00
37536;BMP180;23379;51.554;6.736;2023-03-14T06:26:26;98402.00;;;9.00
37536;BMP180;23379;51.554;6.736;2023-03-14T06:28:51;98395.00;;;9.00
37536;BMP180;23379;51.554;6.736;2023-03-14T06:31:18;98389.00;;;9.00
37536;BMP180;23379;51.554;6.736;2023-03-14T06:33:43;98391.00;;;9.00
37536;BMP180;23379;51.554;6.736;2023-03-14T06:36:09;98406.00;;;9.10
37536;BMP180;23379;51.554;6.736;2023-03-14T06:38:34;98410.00;;;9.10
37536;BMP180;23379;51.554;6.736;2023-03-14T06:41:04;98403.00;;;9.30
37536;BMP180;23379;51.554;6.736;2023-03-14T06:43:30;98400.00;;;9.30
37536;BMP180;23379;51.554;6.736;2023-03-14T06:45:55;98390.00;;;9.10
37536;BMP180;23379;51.554;6.736;2023-03-14T06:48:20;98398.00;;;9.20
37536;BMP180;23379;51.554;6.736;2023-03-14T06:50:47;98376.00;;;9.30
37536;BMP180;23379;51.554;6.736;2023-03-14T06:53:13;98379.00;;;9.30
37536;BMP180;23379;51.554;6.736;2023-03-14T06:55:38;98379.00;;;9.40
37536;BMP180;23379;51.554;6.736;2023-03-14T06:58:03;98387.00;;;9.60
37536;BMP180;23379;51.554;6.736;2023-03-14T07:00:29;98392.00;;;9.60
37536;BMP180;23379;51.554;6.736;2023-03-14T07:02:54;98401.00;;;9.60
37536;BMP180;23379;51.554;6.736;2023-03-14T07:05:19;98404.00;;;9.50
37536;BMP180;23379;51.554;6.736;2023-03-14T07:07:45;98381.00;;;9.50
37536;BMP180;23379;51.554;6.736;2023-03-14T07:10:10;98401.00;;;9.50
37536;BMP180;23379;51.554;6.736;2023-03-14T07:12:36;98404.00;;;9.60
37536;BMP180;23379;51.554;6.736;2023-03-14T07:15:01;98409.00;;;9.50
37536;BMP180;23379;51.554;6.736;2023-03-14T07:17:27;98423.00;;;9.60
37536;BMP180;23379;51.554;6.736;2023-03-14T07:19:52;98399.00;;;9.60
37536;BMP180;23379;51.554;6.736;2023-03-14T07:22:17;98417.00;;;9.60
37536;BMP180;23379;51.554;6.736;2023-03-14T07:24:43;98415.00;;;9.60
37536;BMP180;23379;51.554;6.736;2023-03-14T07:27:08;98415.00;;;9.50
37536;BMP180;23379;51.554;6.736;2023-03-14T07:29:33;98410.00;;;9.40
37536;BMP180;23379;51.554;6.736;2023-03-14T07:31:58;98417.00;;;9.60
37536;BMP180;23379;51.554;6.736;2023-03-14T07:34:24;98416.00;;;9.90
37536;BMP180;23379;51.554;6.736;2023-03-14T07:36:49;98405.00;;;10.00
37536;BMP180;23379;51.554;6.736;2023-03-14T07:39:14;98424.00;;;9.90
37536;BMP180;23379;51.554;6.736;2023-03-14T07:41:40;98414.00;;;10.00
37536;BMP180;23379;51.554;6.736;2023-03-14T07:44:05;98393.00;;;10.10
37536;BMP180;23379;51.554;6.736;2023-03-14T07:46:30;98424.00;;;10.10
37536;BMP180;23379;51.554;6.736;2023-03-14T07:48:56;98418.00;;;10.10
37536;BMP180;23379;51.554;6.736;2023-03-14T07:51:21;98415.00;;;9.90
37536;BMP180;23379;51.554;6.736;2023-03-14T07:53:46;98435.00;;;10.00
37536;BMP180;23379;51.554;6.736;2023-03-14T07:56:12;98427.00;;;10.00
37536;BMP180;23379;51.554;6.736;2023-03-14T07:58:37;98443.00;;;10.10
37536;BMP180;23379;51.554;6.736;2023-03-14T08:01:03;98437.00;;;10.00
37536;BMP180;23379;51.554;6.736;2023-03-14T08:03:28;98444.00;;;10.10
37536;BMP180;23379;51.554;6.736;2023-03-14T08:05:53;98441.00;;;10.30
37536;BMP180;23379;51.554;6.736;2023-03-14T08:08:19;98439.00;;;10.40
37536;BMP180;23379;51.554;6.736;2023-03-14T08:10:44;98426.00;;;10.60
37536;BMP180;23379;51.554;6.736;2023-03-14T08:13:11;98451.00;;;10.60
37536;BMP180;23379;51.554;6.736;2023-03-14T08:15:36;98448.00;;;10.60
37536;BMP180;23379;51.554;6.736;2023-03-14T08:18:02;98455.00;;;10.60
37536;BMP180;23379;51.554;6.736;2023-03-14T08:20:29;98436.00;;;10.60
37536;BMP180;23379;51.554;6.736;2023-03-14T08:23:00;98455.00;;;10.70
37536;BMP180;23379;51.554;6.736;2023-03-14T08:25:26;98460.00;;;10.80
37536;BMP180;23379;51.554;6.736;2023-03-14T08:27:52;98438.00;;;10.70
37536;BMP180;23379;51.554;6.736;2023-03-14T08:30:19;98460.00;;;10.60
37536;BMP180;23379;51.554;6.736;2023-03-14T08:32:45;98463.00;;;10.50
37536;BMP180;23379;51.554;6.736;2023-03-14T08:35:10;98453.00;;;10.40
37536;BMP180;23379;51.554;6.736;2023-03-14T08:37:36;98468.00;;;10.20
37536;BMP180;23379;51.554;6.736;2023-03-14T08:40:03;98462.00;;;10.10
37536;BMP180;23379;51.554;6.736;2023-03-14T08:42:33;98456.00;;;10.20
37536;BMP180;23379;51.554;6.736;2023-03-14T08:44:58;98477.00;;;10.50
37536;BMP180;23379;51.554;6.736;2023-03-14T08:47:24;98467.00;;;10.60
37536;BMP180;23379;51.554;6.736;2023-03-14T08:49:49;98466.00;;;10.60
37536;BMP180;23379;51.554;6.736;2023-03-14T08:52:14;98477.00;;;10.60
37536;BMP180;23379;51.554;6.736;2023-03-14T08:54:42;98477.00;;;10.60
37536;BMP180;23379;51.554;6.736;2023-03-14T08:57:08;98482.00;;;10.50
37536;BMP180;23379;51.554;6.736;2023-03-14T08:59:33;98535.00;;;10.50
37536;BMP180;23379;51.554;6.736;2023-03-14T09:01:59;98559.00;;;9.60
37536;BMP180;23379;51.554;6.736;2023-03-14T09:04:24;98574.00;;;9.40
37536;BMP180;23379;51.554;6.736;2023-03-14T09:06:49;98566.00;;;9.10
37536;BMP180;23379;51.554;6.736;2023-03-14T09:09:15;98587.00;;;9.10
37536;BMP180;23379;51.554;6.736;2023-03-14T09:11:40;98586.00;;;8.80
37536;BMP180;23379;51.554;6.736;2023-03-14T09:14:06;98593.00;;;8.70
37536;BMP180;23379;51.554;6.736;2023-03-14T09:16:33;98601.00;;;8.60
37536;BMP180;23379;51.554;6.736;2023-03-14T09:18:58;98593.00;;;8.40
37536;BMP180;23379;51.554;6.736;2023-03-14T09:21:25;98606.00;;;8.40
37536;BMP180;23379;51.554;6.736;2023-03-14T09:23:51;98607.00;;;8.30
37536;BMP180;23379;51.554;6.736;2023-03-14T09:26:16;98619.00;;;8.20
37536;BMP180;23379;51.554;6.736;2023-03-14T09:28:42;98649.00;;;8.60
37536;BMP180;23379;51.554;6.736;2023-03-14T09:31:08;98665.00;;;8.50
37536;BMP180;23379;51.554;6.736;2023-03-14T09:33:35;98663.00;;;8.50
37536;BMP180;23379;51.554;6.736;2023-03-14T09:36:00;98668.00;;;8.50
37536;BMP180;23379;51.554;6.736;2023-03-14T09:38:26;98668.00;;;8.80
37536;BMP180;23379;51.554;6.736;2023-03-14T09:40:53;98701.00;;;8.80
37536;BMP180;23379;51.554;6.736;2023-03-14T09:43:19;98700.00;;;8.60
37536;BMP180;23379;51.554;6.736;2023-03-14T09:45:48;98716.00;;;8.30
37536;BMP180;23379;51.554;6.736;2023-03-14T09:48:22;98736.00;;;8.30
37536;BMP180;23379;51.554;6.736;2023-03-14T09:50:53;98740.00;;;8.30
37536;BMP180;23379;51.554;6.736;2023-03-14T09:53:45;98743.00;;;8.20
37536;BMP180;23379;51.554;6.736;2023-03-14T09:56:31;98771.00;;;8.30
37536;BMP180;23379;51.554;6.736;2023-03-14T09:59:00;98770.00;;;8.20
37536;BMP180;23379;51.554;6.736;2023-03-14T10:01:28;98781.00;;;8.40
37536;BMP180;23379;51.554;6.736;2023-03-14T10:03:56;98782.00;;;8.60
37536;BMP180;23379;51.554;6.736;2023-03-14T10:06:26;98806.00;;;8.70
37536;BMP180;23379;51.554;6.736;2023-03-14T10:08:52;98816.00;;;8.50
37536;BMP180;23379;51.554;6.736;2023-03-14T10:11:19;98820.00;;;8.30
37536;BMP180;23379;51.554;6.736;2023-03-14T10:13:53;98825.00;;;8.20
37536;BMP180;23379;51.554;6.736;2023-03-14T10:16:37;98852.00;;;8.20
37536;BMP180;23379;51.554;6.736;2023-03-14T10:19:08;98878.00;;;8.30
37536;BMP180;23379;51.554;6.736;2023-03-14T10:21:40;98867.00;;;8.20
37536;BMP180;23379;51.554;6.736;2023-03-14T10:24:41;98890.00;;;8.00
37536;BMP180;23379;51.554;6.736;2023-03-14T10:27:18;98911.00;;;8.30
37536;BMP180;23379;51.554;6.736;2023-03-14T10:29:53;98929.00;;;8.10
37536;BMP180;23379;51.554;6.736;2023-03-14T10:32:20;98945.00;;;7.80
37536;BMP180;23379;51.554;6.736;2023-03-14T10:35:05;98958.00;;;7.80
37536;BMP180;23379;51.554;6.736;2023-03-14T10:37:30;98971.00;;;7.80
37536;BMP180;23379;51.554;6.736;2023-03-14T10:39:59;98986.00;;;7.90
37536;BMP180;23379;51.554;6.736;2023-03-14T10:42:32;98981.00;;;8.20
37536;BMP180;23379;51.554;6.736;2023-03-14T10:45:04;98993.00;;;8.10
37536;BMP180;23379;51.554;6.736;2023-03-14T10:47:33;99009.00;;;8.10
37536;BMP180;23379;51.554;6.736;2023-03-14T10:50:23;99024.00;;;8.30
37536;BMP180;23379;51.554;6.736;2023-03-14T10:52:49;99034.00;;;8.80
37536;BMP180;23379;51.554;6.736;2023-03-14T10:55:16;99050.00;;;8.90
37536;BMP180;23379;51.554;6.736;2023-03-14T10:57:42;99072.00;;;8.90
37536;BMP180;23379;51.554;6.736;2023-03-14T11:00:19;99081.00;;;8.60
37536;BMP180;23379;51.554;6.736;2023-03-14T11:03:07;99096.00;;;8.80
37536;BMP180;23379;51.554;6.736;2023-03-14T11:05:42;99098.00;;;8.80
37536;BMP180;23379;51.554;6.736;2023-03-14T11:08:36;99084.00;;;8.90
37536;BMP180;23379;51.554;6.736;2023-03-14T11:11:16;99122.00;;;9.40
37536;BMP180;23379;51.554;6.736;2023-03-14T11:14:00;99128.00;;;9.40
37536;BMP180;23379;51.554;6.736;2023-03-14T11:16:48;99143.00;;;9.20
37536;BMP180;23379;51.554;6.736;2023-03-14T11:19:41;99134.00;;;9.40
37536;BMP180;23379;51.554;6.736;2023-03-14T11:22:27;99160.00;;;10.00
37536;BMP180;23379;51.554;6.736;2023-03-14T11:27:43;99194.00;;;9.10
37536;BMP180;23379;51.554;6.736;2023-03-14T11:30:15;99203.00;;;9.30
37536;BMP180;23379;51.554;6.736;2023-03-14T11:33:31;99206.00;;;9.20
37536;BMP180;23379;51.554;6.736;2023-03-14T11:35:34;99190.00;;;9.60
37536;BMP180;23379;51.554;6.736;2023-03-14T11:38:19;99233.00;;;9.40
37536;BMP180;23379;51.554;6.736;2023-03-14T11:40:49;99217.00;;;8.90
37536;BMP180;23379;51.554;6.736;2023-03-14T11:43:37;99233.00;;;9.30
37536;BMP180;23379;51.554;6.736;2023-03-14T11:46:31;99219.00;;;9.50
37536;BMP180;23379;51.554;6.736;2023-03-14T11:51:29;99233.00;;;9.70
37536;BMP180;23379;51.554;6.736;2023-03-14T11:56:53;99262.00;;;8.80
37536;BMP180;23379;51.554;6.736;2023-03-14T11:59:26;99265.00;;;9.10
37536;BMP180;23379;51.554;6.736;2023-03-14T12:02:05;99296.00;;;10.30
37536;BMP180;23379;51.554;6.736;2023-03-14T12:07:42;99296.00;;;11.90
37536;BMP180;23379;51.554;6.736;2023-03-14T12:10:10;99304.00;;;11.30
37536;BMP180;23379;51.554;6.736;2023-03-14T12:12:35;99309.00;;;10.40
37536;BMP180;23379;51.554;6.736;2023-03-14T12:15:03;99321.00;;;10.40
37536;BMP180;23379;51.554;6.736;2023-03-14T12:17:37;99329.00;;;10.10
37536;BMP180;23379;51.554;6.736;2023-03-14T12:20:18;99333.00;;;9.70
37536;BMP180;23379;51.554;6.736;2023-03-14T12:22:52;99352.00;;;9.10
37536;BMP180;23379;51.554;6.736;2023-03-14T12:25:20;99370.00;;;8.50
37536;BMP180;23379;51.554;6.736;2023-03-14T12:30:40;99388.00;;;8.30
37536;BMP180;23379;51.554;6.736;2023-03-14T12:41:17;99421.00;;;9.30
37536;BMP180;23379;51.554;6.736;2023-03-14T12:43:45;99402.00;;;10.00
37536;BMP180;23379;51.554;6.736;2023-03-14T12:48:44;99432.00;;;10.60
37536;BMP180;23379;51.554;6.736;2023-03-14T12:51:19;99437.00;;;11.00
37536;BMP180;23379;51.554;6.736;2023-03-14T12:57:06;99473.00;;;9.40
37536;BMP180;23379;51.554;6.736;2023-03-14T12:59:35;99481.00;;;8.20
37536;BMP180;23379;51.554;6.736;2023-03-14T13:04:43;99494.00;;;8.00
37536;BMP180;23379;51.554;6.736;2023-03-14T13:09:55;99504.00;;;8.40
37536;BMP180;23379;51.554;6.736;2023-03-14T13:12:28;99514.00;;;8.70
37536;BMP180;23379;51.554;6.736;2023-03-14T13:14:57;99505.00;;;9.00
37536;BMP180;23379;51.554;6.736;2023-03-14T13:17:30;99518.00;;;9.10
37536;BMP180;23379;51.554;6.736;2023-03-14T13:19:57;99534.00;;;9.40
37536;BMP180;23379;51.554;6.736;2023-03-14T13:22:27;99520.00;;;9.50
37536;BMP180;23379;51.554;6.736;2023-03-14T13:25:09;99545.00;;;9.60
37536;BMP180;23379;51.554;6.736;2023-03-14T13:27:35;99529.00;;;9.70
37536;BMP180;23379;51.554;6.736;2023-03-14T13:30:22;99542.00;;;9.50
37536;BMP180;23379;51.554;6.736;2023-03-14T13:32:49;99545.00;;;9.90
37536;BMP180;23379;51.554;6.736;2023-03-14T13:37:56;99566.00;;;11.70
37536;BMP180;23379;51.554;6.736;2023-03-14T13:40:33;99581.00;;;12.20
37536;BMP180;23379;51.554;6.736;2023-03-14T13:43:05;99569.00;;;12.00
37536;BMP180;23379;51.554;6.736;2023-03-14T13:45:31;99552.00;;;12.60
37536;BMP180;23379;51.554;6.736;2023-03-14T13:47:56;99561.00;;;13.30
37536;BMP180;23379;51.554;6.736;2023-03-14T13:50:22;99580.00;;;14.00
37536;BMP180;23379;51.554;6.736;2023-03-14T13:52:55;99581.00;;;13.60
37536;BMP180;23379;51.554;6.736;2023-03-14T13:55:21;99590.00;;;13.10
37536;BMP180;23379;51.554;6.736;2023-03-14T14:00:23;99615.00;;;13.40
37536;BMP180;23379;51.554;6.736;2023-03-14T14:02:56;99629.00;;;13.50
37536;BMP180;23379;51.554;6.736;2023-03-14T14:05:26;99631.00;;;13.00
37536;BMP180;23379;51.554;6.736;2023-03-14T14:07:53;99627.00;;;14.10
37536;BMP180;23379;51.554;6.736;2023-03-14T14:10:19;99640.00;;;16.00
37536;BMP180;23379;51.554;6.736;2023-03-14T14:12:55;99649.00;;;16.30
37536;BMP180;23379;51.554;6.736;2023-03-14T14:15:27;99652.00;;;16.40
37536;BMP180;23379;51.554;6.736;2023-03-14T14:17:55;99652.00;;;16.30
37536;BMP180;23379;51.554;6.736;2023-03-14T14:20:26;99666.00;;;16.50
37536;BMP180;23379;51.554;6.736;2023-03-14T14:22:57;99674.00;;;17.10
37536;BMP180;23379;51.554;6.736;2023-03-14T14:25:23;99659.00;;;16.60
37536;BMP180;23379;51.554;6.736;2023-03-14T14:27:49;99676.00;;;16.20
37536;BMP180;23379;51.554;6.736;2023-03-14T14:32:45;99688.00;;;17.60
37536;BMP180;23379;51.554;6.736;2023-03-14T14:35:31;99688.00;;;18.70
37536;BMP180;23379;51.554;6.736;2023-03-14T14:37:57;99703.00;;;18.60
37536;BMP180;23379;51.554;6.736;2023-03-14T14:40:25;99718.00;;;18.40
37536;BMP180;23379;51.554;6.736;2023-03-14T14:42:51;99705.00;;;18.50
37536;BMP180;23379;51.554;6.736;2023-03-14T14:45:19;99727.00;;;18.00
37536;BMP180;23379;51.554;6.736;2023-03-14T14:48:05;99731.00;;;17.80
37536;BMP180;23379;51.554;6.736;2023-03-14T14:50:44;99732.00;;;18.20
37536;BMP180;23379;51.554;6.736;2023-03-14T14:53:41;99737.00;;;17.30
37536;BMP180;23379;51.554;6.736;2023-03-14T14:56:27;99733.00;;;15.30
37536;BMP180;23379;51.554;6.736;2023-03-14T14:59:00;99758.00;;;14.30
37536;BMP180;23379;51.554;6.736;2023-03-14T15:01:38;99762.00;;;13.30
37536;BMP180;23379;51.554;6.736;2023-03-14T15:04:14;99761.00;;;11.80
37536;BMP180;23379;51.554;6.736;2023-03-14T15:06:42;99770.00;;;10.90